Time;durP1;ratioP1;P1;durP2;ratioP2;P2;SDS_P1;SDS_P2;PMS_P1;PMS_P2;Temp;Humidity;BMP_temperature;BMP_pressure;BME280_temperature;BME280_humidity;BME280_pressure;Samples;Min_cycle;Max_cycle;Signal;HPM_P1;HPM_P2
2022/04/06 00:00:26;;;;;;;19.05;12.60;;;;;;;7.75;82.16;100198.75;5032055;28;20025;-86
2022/04/06 00:02:53;;;;;;;18.25;11.05;;;;;;;7.75;81.99;100170.50;5031483;28;20029;-82
2022/04/06 00:05:18;;;;;;;18.10;10.75;;;;;;;7.68;80.99;100171.94;5030224;28;20037;-80
2022/04/06 00:07:44;;;;;;;15.07;11.18;;;;;;;7.80;81.30;100193.81;5031434;28;20060;-85
2022/04/06 00:10:12;;;;;;;19.92;13.85;;;;;;;7.54;80.91;100188.41;5013733;28;20025;-86
2022/04/06 00:12:39;;;;;;;15.32;11.82;;;;;;;7.10;80.64;100150.53;5031011;28;20038;-80
2022/04/06 00:15:08;;;;;;;16.17;10.80;;;;;;;7.37;80.23;100168.00;5033536;28;20103;-81
2022/04/06 00:17:34;;;;;;;16.58;10.52;;;;;;;7.45;79.09;100186.31;5050872;28;20128;-80
2022/04/06 00:19:59;;;;;;;63.45;39.83;;;;;;;7.38;79.63;100199.72;5050923;28;20028;-81
2022/04/06 00:22:25;;;;;;;23.88;15.65;;;;;;;7.11;80.21;100164.25;5050800;28;20104;-81
2022/04/06 00:24:51;;;;;;;17.00;11.80;;;;;;;7.38;79.87;100204.84;5050780;28;20033;-81
2022/04/06 00:27:18;;;;;;;14.52;10.73;;;;;;;7.06;79.96;100158.88;5049021;28;20064;-81
2022/04/06 00:29:43;;;;;;;20.85;12.40;;;;;;;7.10;79.66;100183.03;5050747;28;20032;-81
2022/04/06 00:32:09;;;;;;;15.68;12.15;;;;;;;7.18;79.96;100199.66;5050762;28;20063;-82
2022/04/06 00:37:18;;;;;;;20.17;12.50;;;;;;;7.42;79.17;100206.72;5050341;28;20040;-81
2022/04/06 00:39:44;;;;;;;25.77;14.60;;;;;;;7.38;77.45;100209.97;5050124;28;20415;-81
2022/04/06 00:42:09;;;;;;;22.00;14.88;;;;;;;7.20;78.14;100210.91;5050797;28;20028;-81
2022/04/06 00:44:35;;;;;;;18.23;12.68;;;;;;;6.96;79.14;100196.09;5050514;28;20025;-81
2022/04/06 00:47:03;;;;;;;20.20;11.77;;;;;;;6.76;79.95;100200.28;5043672;28;20033;-80
2022/04/06 00:49:29;;;;;;;15.20;11.10;;;;;;;6.62;81.02;100214.13;5038341;28;20099;-81
2022/04/06 00:51:55;;;;;;;14.48;10.52;;;;;;;6.47;80.96;100198.88;5030195;28;20057;-81
2022/04/06 00:54:22;;;;;;;14.70;11.30;;;;;;;6.22;80.91;100160.88;5029922;28;20107;-81
2022/04/06 00:56:48;;;;;;;16.10;12.13;;;;;;;6.14;81.88;100178.44;5030501;28;20037;-81
2022/04/06 00:59:18;;;;;;;15.48;11.75;;;;;;;6.15;82.40;100196.47;5029608;28;20037;-81
2022/04/06 01:01:48;;;;;;;14.52;11.82;;;;;;;5.86;84.92;100207.78;5030709;28;20037;-80
2022/04/06 01:04:15;;;;;;;15.43;12.30;;;;;;;5.53;87.24;100215.44;5030565;28;20068;-80
2022/04/06 01:06:41;;;;;;;16.35;12.65;;;;;;;5.43;88.05;100192.72;5030254;28;20029;-80
2022/04/06 01:09:07;;;;;;;19.48;17.48;;;;;;;5.33;89.12;100210.16;5030323;28;20108;-80
2022/04/06 01:11:33;;;;;;;18.98;15.05;;;;;;;5.47;89.47;100212.53;5030624;28;20029;-80
2022/04/06 01:13:59;;;;;;;19.33;15.27;;;;;;;5.49;89.23;100203.28;5028775;28;20026;-81
2022/04/06 01:16:24;;;;;;;19.50;14.38;;;;;;;5.41;88.81;100195.19;5030482;28;20033;-80
2022/04/06 01:18:50;;;;;;;17.23;12.38;;;;;;;5.58;88.88;100210.56;5030044;28;20033;-80
2022/04/06 01:21:15;;;;;;;17.95;12.82;;;;;;;5.35;88.40;100182.94;5029659;28;20025;-78
2022/04/06 01:23:42;;;;;;;17.35;12.85;;;;;;;5.74;88.18;100225.94;5030259;28;20040;-80
2022/04/06 01:26:09;;;;;;;15.35;13.30;;;;;;;5.70;87.73;100218.03;5030330;28;20025;-80
2022/04/06 01:28:36;;;;;;;18.38;13.32;;;;;;;5.77;88.32;100223.53;5012412;28;20041;-80
2022/04/06 01:31:01;;;;;;;14.55;12.23;;;;;;;5.89;87.68;100220.72;5029882;28;20030;-80
2022/04/06 01:33:28;;;;;;;18.85;13.73;;;;;;;5.93;87.23;100220.09;5030056;28;20034;-80
2022/04/06 01:35:56;;;;;;;19.15;12.50;;;;;;;6.00;86.98;100211.06;5029609;28;20082;-80
2022/04/06 01:38:22;;;;;;;20.17;13.30;;;;;;;6.01;85.26;100186.31;5012450;28;20091;-83
2022/04/06 01:40:47;;;;;;;15.90;12.10;;;;;;;6.09;84.50;100205.53;5012249;28;20036;-82
2022/04/06 01:43:13;;;;;;;14.68;12.35;;;;;;;5.95;85.14;100184.31;5029729;28;20425;-82
2022/04/06 01:45:38;;;;;;;13.30;11.30;;;;;;;6.11;85.43;100211.63;5030060;28;20032;-83
2022/04/06 01:48:04;;;;;;;15.43;12.02;;;;;;;5.78;85.91;100209.03;5041140;28;20040;-81
2022/04/06 01:53:14;;;;;;;13.98;11.98;;;;;;;5.01;91.72;100213.53;5049504;28;20051;-84
2022/04/06 01:55:39;;;;;;;18.48;12.45;;;;;;;4.74;93.23;100215.44;5049686;28;20484;-84
2022/04/06 01:58:06;;;;;;;15.98;12.30;;;;;;;4.83;93.39;100219.34;5050150;28;20538;-84
2022/04/06 02:00:31;;;;;;;16.33;13.25;;;;;;;4.67;93.55;100209.97;5048058;28;20025;-83
2022/04/06 02:02:57;;;;;;;14.57;12.68;;;;;;;4.51;93.40;100184.31;5049526;28;20052;-81
2022/04/06 02:05:22;;;;;;;15.57;11.65;;;;;;;4.81;92.74;100227.75;5049681;28;20036;-81
2022/04/06 02:07:48;;;;;;;14.05;11.85;;;;;;;4.84;91.91;100230.50;5048090;28;20443;-83
2022/04/06 02:10:15;;;;;;;14.75;12.32;;;;;;;4.87;91.48;100238.31;5048221;28;20071;-84
2022/04/06 02:12:41;;;;;;;15.18;12.75;;;;;;;4.77;92.43;100230.94;5053496;28;20040;-82
2022/04/06 02:15:12;;;;;;;13.50;12.07;;;;;;;4.65;92.62;100195.34;5051760;28;20420;-82
2022/04/06 02:17:38;;;;;;;16.08;12.75;;;;;;;5.06;91.71;100234.22;5051155;28;20124;-82
2022/04/06 02:20:04;;;;;;;15.75;12.65;;;;;;;5.16;91.29;100227.16;5053413;28;20033;-81
2022/04/06 02:22:30;;;;;;;14.65;12.25;;;;;;;5.19;90.23;100232.41;5052625;28;20025;-81
2022/04/06 02:24:55;;;;;;;14.93;12.05;;;;;;;5.08;89.56;100215.59;5052907;28;20059;-82
2022/04/06 02:27:21;;;;;;;16.48;13.15;;;;;;;4.93;91.25;100232.69;5053120;28;20487;-83
2022/04/06 02:29:47;;;;;;;15.90;12.82;;;;;;;4.96;91.16;100227.72;5052845;28;20506;-81
2022/04/06 02:32:12;;;;;;;22.00;12.65;;;;;;;5.04;90.63;100240.97;5052608;28;20025;-82
2022/04/06 02:34:39;;;;;;;15.30;13.35;;;;;;;4.93;90.58;100228.44;5052632;28;20385;-81
2022/04/06 02:37:05;;;;;;;19.60;14.00;;;;;;;5.04;90.97;100253.75;5052840;28;20166;-82
2022/04/06 02:39:31;;;;;;;15.90;12.68;;;;;;;4.95;90.25;100243.88;5051109;28;20031;-82
2022/04/06 02:41:56;;;;;;;16.73;12.88;;;;;;;4.69;89.22;100204.94;5051265;28;20029;-82
2022/04/06 02:44:22;;;;;;;14.80;12.85;;;;;;;4.84;89.69;100220.25;5052200;28;20562;-82
2022/04/06 02:46:48;;;;;;;16.35;13.27;;;;;;;5.21;89.57;100249.53;5052366;28;20029;-82
2022/04/06 02:49:14;;;;;;;15.68;13.70;;;;;;;5.34;87.93;100259.66;5052348;28;20063;-83
2022/04/06 02:51:40;;;;;;;15.27;13.20;;;;;;;5.29;85.79;100244.03;5050931;28;20029;-82
2022/04/06 02:54:06;;;;;;;16.95;13.25;;;;;;;5.04;86.11;100200.03;5028920;28;20111;-83
2022/04/06 02:56:31;;;;;;;16.75;13.13;;;;;;;5.48;85.81;100263.88;5012193;28;20184;-82
2022/04/06 02:58:57;;;;;;;15.75;11.90;;;;;;;5.50;84.87;100240.91;5012505;28;20041;-81
2022/04/06 03:01:23;;;;;;;14.80;11.50;;;;;;;5.53;84.23;100240.19;5028540;28;20037;-82
2022/04/06 03:03:48;;;;;;;20.00;12.20;;;;;;;5.31;84.88;100260.38;5028823;28;20128;-82
2022/04/06 03:06:14;;;;;;;18.23;14.23;;;;;;;5.12;86.03;100253.38;5028975;28;20041;-81
2022/04/06 03:08:39;;;;;;;23.23;16.45;;;;;;;5.09;86.74;100262.56;4992599;28;20509;-81
2022/04/06 03:11:05;;;;;;;20.88;15.25;;;;;;;4.81;87.52;100264.44;5008843;28;20121;-81
2022/04/06 03:13:31;;;;;;;23.48;17.60;;;;;;;4.47;87.85;100230.94;5008701;28;20042;-81
2022/04/06 03:15:56;;;;;;;35.28;28.15;;;;;;;4.57;88.61;100268.16;5008454;28;20125;-81
2022/04/06 03:18:22;;;;;;;35.38;27.23;;;;;;;4.52;89.36;100270.44;4969633;28;20094;-81
2022/04/06 03:20:48;;;;;;;30.02;22.90;;;;;;;4.59;88.62;100279.38;4969872;28;20461;-81
2022/04/06 03:23:16;;;;;;;29.27;20.95;;;;;;;4.79;88.20;100288.19;4968828;28;20692;-79
2022/04/06 03:25:43;;;;;;;26.77;19.65;;;;;;;4.90;87.71;100288.75;4998950;28;20076;-81
2022/04/06 03:28:09;;;;;;;25.90;20.88;;;;;;;4.90;86.05;100256.41;5008708;28;20604;-82
2022/04/06 03:30:35;;;;;;;25.10;20.85;;;;;;;4.72;85.53;100252.81;5008358;28;20026;-81
2022/04/06 03:33:01;;;;;;;26.58;21.80;;;;;;;4.78;86.20;100271.94;5025045;28;20041;-81
2022/04/06 03:35:26;;;;;;;28.08;22.73;;;;;;;5.06;86.04;100286.31;4992114;28;20438;-82
2022/04/06 03:37:52;;;;;;;27.55;21.25;;;;;;;5.06;84.26;100270.94;4992053;28;20161;-82
2022/04/06 03:40:18;;;;;;;27.08;20.33;;;;;;;5.01;83.60;100292.84;4992154;28;20026;-82
2022/04/06 03:42:43;;;;;;;25.40;19.90;;;;;;;4.89;84.13;100266.56;5024822;28;20037;-81
2022/04/06 03:45:09;;;;;;;25.48;19.08;;;;;;;4.93;83.34;100294.06;5008002;28;20046;-82
2022/04/06 03:47:36;;;;;;;25.15;18.02;;;;;;;4.81;84.34;100302.81;5008189;28;20037;-81
2022/04/06 03:50:04;;;;;;;21.48;15.52;;;;;;;4.51;84.43;100268.66;5039929;28;20106;-82
2022/04/06 03:52:30;;;;;;;17.02;12.95;;;;;;;4.52;84.83;100291.78;5009790;28;1158684;-83
2022/04/06 03:54:56;;;;;;;16.40;11.95;;;;;;;4.46;86.24;100303.31;5033065;28;20045;-82
2022/04/06 03:57:22;;;;;;;19.45;11.52;;;;;;;4.30;86.60;100302.41;5033288;28;20034;-81
2022/04/06 03:59:48;;;;;;;16.65;11.60;;;;;;;4.21;86.77;100307.88;5050606;28;20833;-79
2022/04/06 04:02:13;;;;;;;17.03;10.93;;;;;;;4.12;87.38;100308.97;5050834;28;20480;-83
2022/04/06 04:04:38;;;;;;;20.02;11.23;;;;;;;4.08;87.43;100309.59;5050986;28;20408;-80
2022/04/06 04:07:06;;;;;;;14.65;10.70;;;;;;;4.00;87.62;100311.66;5051079;28;20075;-81
2022/04/06 04:09:33;;;;;;;14.02;10.02;;;;;;;3.82;87.75;100276.56;5050798;28;20037;-81
2022/04/06 04:11:58;;;;;;;18.30;11.10;;;;;;;4.08;87.65;100307.03;5032796;28;20032;-82
2022/04/06 04:14:24;;;;;;;14.95;11.15;;;;;;;4.20;86.52;100312.88;5050666;28;20033;-81
2022/04/06 04:16:49;;;;;;;21.57;12.23;;;;;;;4.27;85.71;100298.78;5050597;28;20025;-85
2022/04/06 04:19:16;;;;;;;18.25;12.52;;;;;;;4.42;84.81;100319.28;5050508;28;20094;-84
2022/04/06 04:21:42;;;;;;;16.60;12.60;;;;;;;4.47;84.49;100305.06;5050678;28;20043;-83
2022/04/06 04:24:10;;;;;;;24.15;12.25;;;;;;;4.69;83.07;100315.75;5032793;28;20061;-79
2022/04/06 04:26:38;;;;;;;18.48;12.40;;;;;;;4.70;82.58;100320.09;5032513;28;20109;-78
2022/04/06 04:29:04;;;;;;;20.10;12.00;;;;;;;4.85;81.78;100338.00;5050950;28;20077;-78
2022/04/06 04:31:30;;;;;;;20.08;12.32;;;;;;;4.90;81.58;100333.16;5032798;28;20032;-78
2022/04/06 04:33:58;;;;;;;16.77;11.57;;;;;;;4.67;81.37;100289.25;5050416;28;20025;-77
2022/04/06 04:36:24;;;;;;;19.42;12.90;;;;;;;4.98;81.63;100329.34;5050755;28;20102;-78
2022/04/06 04:38:49;;;;;;;18.38;12.18;;;;;;;5.10;81.60;100334.28;5050187;28;20484;-78
2022/04/06 04:41:16;;;;;;;16.05;11.57;;;;;;;5.22;81.43;100336.66;5050360;28;20044;-78
2022/04/06 04:43:42;;;;;;;16.27;11.70;;;;;;;5.40;81.24;100348.72;5032684;28;20484;-77
2022/04/06 04:46:07;;;;;;;17.90;12.27;;;;;;;5.41;80.87;100340.22;5050546;28;20112;-78
2022/04/06 04:48:33;;;;;;;16.13;12.27;;;;;;;5.25;80.64;100312.91;5050140;28;20021;-78
2022/04/06 04:50:59;;;;;;;16.02;11.23;;;;;;;5.40;81.16;100330.81;5050604;28;20057;-78
2022/04/06 04:53:25;;;;;;;26.17;13.07;;;;;;;5.35;81.39;100315.19;5050399;28;20088;-78
2022/04/06 04:55:53;;;;;;;18.38;12.10;;;;;;;5.63;81.75;100357.66;5049956;28;20028;-78
2022/04/06 04:58:19;;;;;;;18.45;13.02;;;;;;;5.64;81.86;100350.06;5050389;28;20450;-78
2022/04/06 05:00:46;;;;;;;26.75;13.10;;;;;;;5.67;82.62;100350.25;5032249;28;20029;-78
2022/04/06 05:03:11;;;;;;;22.10;14.82;;;;;;;5.75;83.72;100348.09;5032318;28;20029;-78
2022/04/06 05:05:39;;;;;;;46.60;31.70;;;;;;;5.85;84.18;100357.16;5032212;28;20393;-78
2022/04/06 05:08:06;;;;;;;24.98;15.70;;;;;;;5.64;83.64;100333.81;5032371;28;20124;-78
2022/04/06 05:10:31;;;;;;;23.58;15.15;;;;;;;5.77;83.12;100356.75;5015422;28;20192;-78
2022/04/06 05:12:57;;;;;;;21.63;14.98;;;;;;;5.60;83.87;100357.50;5050282;28;20025;-79
2022/04/06 05:15:22;;;;;;;26.10;16.85;;;;;;;5.45;85.54;100345.63;5050269;28;20029;-78
2022/04/06 05:17:48;;;;;;;21.10;15.05;;;;;;;5.19;88.09;100368.06;5050000;28;20040;-79
2022/04/06 05:20:13;;;;;;;19.60;15.88;;;;;;;5.12;90.12;100349.72;5050082;28;20448;-79
2022/04/06 05:22:40;;;;;;;24.17;17.20;;;;;;;5.39;91.83;100370.88;5032069;28;20033;-78
2022/04/06 05:25:07;;;;;;;25.73;17.95;;;;;;;5.29;91.74;100338.75;5049704;28;20028;-78
2022/04/06 05:27:54;;;;;;;23.80;18.42;;;;;;;5.62;91.75;100372.16;5032103;28;20067;-79
2022/04/06 05:30:23;;;;;;;23.52;18.08;;;;;;;5.74;91.74;100377.06;5049882;28;20037;-78
2022/04/06 05:32:51;;;;;;;25.20;20.02;;;;;;;5.86;91.45;100373.41;5049640;28;20036;-78
2022/04/06 05:35:17;;;;;;;25.80;18.33;;;;;;;5.98;91.84;100377.56;5049876;28;20036;-78
2022/04/06 05:37:43;;;;;;;24.63;19.20;;;;;;;6.01;92.24;100378.50;5049427;28;20025;-78
2022/04/06 05:40:11;;;;;;;24.75;19.25;;;;;;;6.19;92.43;100381.19;5049946;28;20382;-78
2022/04/06 05:42:37;;;;;;;25.35;19.42;;;;;;;6.34;93.43;100386.25;5049881;28;20025;-78
2022/04/06 05:45:04;;;;;;;23.73;19.40;;;;;;;6.30;94.22;100337.34;5049390;28;20017;-79
2022/04/06 05:47:30;;;;;;;27.13;20.27;;;;;;;6.71;94.34;100377.91;5053405;28;20040;-77
2022/04/06 05:49:56;;;;;;;26.70;20.98;;;;;;;6.69;94.69;100356.41;5028177;28;20041;-77
2022/04/06 05:52:21;;;;;;;26.80;21.20;;;;;;;6.88;94.43;100353.97;5024373;28;20079;-78
2022/04/06 05:54:47;;;;;;;25.85;22.65;;;;;;;7.17;94.67;100380.19;5033025;28;20056;-79
2022/04/06 05:57:12;;;;;;;27.40;21.38;;;;;;;7.26;94.15;100380.66;5015978;28;20065;-79
2022/04/06 05:59:39;;;;;;;33.03;22.10;;;;;;;7.41;93.51;100395.03;5033562;28;20029;-79
2022/04/06 06:02:05;;;;;;;28.65;22.65;;;;;;;7.45;94.42;100392.69;5033144;28;20022;-81
2022/04/06 06:04:30;;;;;;;27.80;22.02;;;;;;;7.05;94.58;100343.66;5033226;28;20067;-80
2022/04/06 06:06:57;;;;;;;27.38;21.88;;;;;;;7.29;96.48;100382.50;5033312;28;20408;-80
2022/04/06 06:09:23;;;;;;;26.38;21.25;;;;;;;7.28;96.32;100373.88;5033346;28;20018;-79
2022/04/06 06:11:48;;;;;;;24.90;20.85;;;;;;;7.60;95.94;100392.53;5033083;28;20463;-80
2022/04/06 06:14:13;;;;;;;26.20;21.08;;;;;;;7.59;95.38;100388.22;5033249;28;20048;-81
2022/04/06 06:16:39;;;;;;;26.80;20.77;;;;;;;7.07;95.01;100306.09;5033083;28;20385;-80
2022/04/06 06:19:04;;;;;;;32.80;25.13;;;;;;;7.76;94.84;100375.28;5033162;28;20406;-80
2022/04/06 06:21:32;;;;;;;37.45;27.15;;;;;;;8.00;91.97;100375.53;5033072;28;20499;-81
2022/04/06 06:24:04;;;;;;;28.67;22.25;;;;;;;8.15;91.21;100371.88;5032717;28;20064;-79
2022/04/06 06:26:29;;;;;;;31.83;24.63;;;;;;;8.37;90.83;100384.00;5032891;28;20037;-79
2022/04/06 06:28:55;;;;;;;20.83;17.60;;;;;;;8.47;90.50;100386.22;5032620;28;20450;-78
2022/04/06 06:31:20;;;;;;;19.75;16.75;;;;;;;8.44;91.05;100375.75;5032563;28;20057;-82
2022/04/06 06:33:47;;;;;;;21.35;16.20;;;;;;;8.71;89.05;100398.38;5014485;28;20037;-77
2022/04/06 06:36:12;;;;;;;18.85;15.45;;;;;;;8.91;87.57;100396.69;5032795;28;20108;-79
2022/04/06 06:38:38;;;;;;;23.33;15.60;;;;;;;8.93;86.90;100402.75;5014912;28;20037;-81
2022/04/06 06:41:03;;;;;;;19.90;16.55;;;;;;;8.74;90.59;100396.81;5014669;28;20057;-78
2022/04/06 06:43:29;;;;;;;21.45;16.73;;;;;;;8.71;90.04;100370.97;5032346;28;20061;-79
2022/04/06 06:45:54;;;;;;;19.75;15.32;;;;;;;9.13;88.24;100390.72;5032604;28;20029;-81
2022/04/06 06:48:20;;;;;;;17.80;15.73;;;;;;;9.23;87.39;100376.53;5032352;28;20109;-81
2022/04/06 06:50:45;;;;;;;17.30;14.73;;;;;;;9.30;86.02;100380.25;5014491;28;20103;-81
2022/04/06 06:53:10;;;;;;;20.05;15.95;;;;;;;9.43;87.83;100397.94;5031080;28;20623;-79
2022/04/06 06:55:36;;;;;;;17.20;15.40;;;;;;;9.64;87.18;100384.16;5032528;28;20059;-79
2022/04/06 06:58:01;;;;;;;19.17;14.60;;;;;;;9.62;85.10;100388.38;5031890;28;20029;-80
2022/04/06 07:00:27;;;;;;;21.10;16.50;;;;;;;9.53;86.20;100356.28;5032312;28;20450;-80
2022/04/06 07:02:52;;;;;;;16.67;14.48;;;;;;;10.01;85.76;100386.47;5032003;28;20048;-81
2022/04/06 07:05:18;;;;;;;15.70;13.50;;;;;;;10.25;84.97;100400.22;5032511;28;20037;-81
2022/04/06 07:07:47;;;;;;;17.50;14.18;;;;;;;10.36;83.27;100389.50;5032066;28;20033;-79
2022/04/06 07:10:13;;;;;;;14.75;12.00;;;;;;;10.33;83.58;100398.78;5014429;28;20029;-79
2022/04/06 07:12:38;;;;;;;15.60;13.90;;;;;;;10.48;83.62;100393.34;5045403;28;20412;-80
2022/04/06 07:15:04;;;;;;;17.38;14.18;;;;;;;10.82;84.21;100407.47;5035950;28;20026;-78
2022/04/06 07:17:29;;;;;;;15.18;12.18;;;;;;;10.72;80.53;100411.41;5030612;28;20040;-80
2022/04/06 07:19:55;;;;;;;14.70;12.95;;;;;;;10.72;82.57;100393.34;5037975;28;20404;-78
2022/04/06 07:22:20;;;;;;;16.30;12.90;;;;;;;11.06;81.04;100399.66;5035896;28;20491;-78
2022/04/06 07:24:46;;;;;;;15.82;12.38;;;;;;;10.93;80.35;100369.97;5030476;28;20033;-80
2022/04/06 07:27:12;;;;;;;14.50;12.05;;;;;;;11.11;80.53;100405.84;5040842;28;20417;-78
2022/04/06 07:29:37;;;;;;;14.63;12.30;;;;;;;11.40;79.46;100426.66;5031182;28;20408;-79
2022/04/06 07:32:04;;;;;;;13.80;12.10;;;;;;;11.52;78.98;100413.22;5031171;28;20037;-79
2022/04/06 07:34:29;;;;;;;13.52;11.98;;;;;;;11.64;79.25;100410.16;5037203;28;20061;-79
2022/04/06 07:36:55;;;;;;;13.50;11.20;;;;;;;11.68;77.35;100417.19;5036353;28;20067;-78
2022/04/06 07:39:20;;;;;;;12.73;11.27;;;;;;;11.76;77.78;100415.72;5032430;28;20403;-80
2022/04/06 07:41:46;;;;;;;13.05;10.77;;;;;;;12.01;76.11;100411.31;5033484;28;20034;-79
2022/04/06 07:44:11;;;;;;;12.48;10.10;;;;;;;12.09;74.19;100399.50;5033240;28;20021;-80
2022/04/06 07:46:38;;;;;;;12.38;10.05;;;;;;;12.14;74.27;100397.06;5030077;28;20033;-79
2022/04/06 07:49:06;;;;;;;12.35;10.35;;;;;;;12.35;72.51;100396.78;5029490;28;20062;-79
2022/04/06 07:51:31;;;;;;;13.35;10.27;;;;;;;12.44;71.01;100368.56;5031289;28;20488;-79
2022/04/06 07:53:57;;;;;;;13.45;10.52;;;;;;;12.59;70.39;100414.72;5030713;28;20080;-79
2022/04/06 07:56:22;;;;;;;12.63;10.32;;;;;;;12.64;71.49;100393.28;5031104;28;20036;-79
2022/04/06 07:58:48;;;;;;;11.43;10.07;;;;;;;12.52;71.12;100375.66;5028241;28;20033;-78
2022/04/06 08:01:13;;;;;;;14.68;9.85;;;;;;;12.76;71.35;100403.94;5029727;28;20542;-79
2022/04/06 08:03:39;;;;;;;10.60;9.50;;;;;;;12.89;68.94;100395.66;5036882;28;20514;-80
2022/04/06 08:06:04;;;;;;;10.82;9.73;;;;;;;12.91;69.51;100388.81;5034871;28;20028;-79
2022/04/06 08:08:30;;;;;;;11.48;10.30;;;;;;;13.14;70.50;100398.03;5029324;28;20411;-80
2022/04/06 08:10:55;;;;;;;12.77;10.10;;;;;;;13.41;69.10;100400.44;5035522;28;20123;-79
2022/04/06 08:13:21;;;;;;;13.05;10.38;;;;;;;13.41;69.02;100388.34;5029449;28;20021;-79
2022/04/06 08:15:46;;;;;;;12.60;9.38;;;;;;;13.35;68.57;100367.44;5030529;28;20044;-79
2022/04/06 08:18:12;;;;;;;10.63;8.82;;;;;;;13.64;66.92;100393.19;5037888;28;20112;-80
2022/04/06 08:20:37;;;;;;;12.38;9.38;;;;;;;13.71;66.64;100379.53;5039702;28;20488;-79
2022/04/06 08:23:03;;;;;;;12.52;10.38;;;;;;;13.85;67.13;100366.84;5048007;28;20557;-79
2022/04/06 08:25:28;;;;;;;11.45;10.25;;;;;;;14.10;66.01;100390.75;5043364;28;20036;-80
2022/04/06 08:27:54;;;;;;;13.75;9.65;;;;;;;14.19;64.44;100388.38;5044843;28;20052;-79
2022/04/06 08:30:22;;;;;;;10.73;9.38;;;;;;;14.13;65.34;100387.34;5040852;28;20021;-79
2022/04/06 08:32:48;;;;;;;10.10;8.57;;;;;;;14.28;63.06;100386.78;5047875;28;20029;-80
2022/04/06 08:35:14;;;;;;;11.50;8.35;;;;;;;14.31;63.68;100374.75;5012264;28;20171;-80
2022/04/06 08:37:40;;;;;;;9.57;8.10;;;;;;;14.49;62.22;100379.44;5030053;28;20108;-80
2022/04/06 08:40:10;;;;;;;11.20;8.60;;;;;;;14.42;62.13;100337.72;5037835;28;20040;-79
2022/04/06 08:42:36;;;;;;;10.50;8.75;;;;;;;14.67;62.89;100365.94;5050398;28;20024;-80
2022/04/06 08:45:06;;;;;;;11.93;9.20;;;;;;;15.07;60.49;100373.56;5049140;28;20025;-80
2022/04/06 08:47:32;;;;;;;10.10;8.25;;;;;;;15.35;59.18;100368.81;5050449;28;20029;-80
2022/04/06 08:49:59;;;;;;;9.25;7.20;;;;;;;15.31;57.98;100336.66;5050401;28;20123;-79
2022/04/06 08:52:25;;;;;;;10.05;7.25;;;;;;;15.46;57.25;100358.59;5027718;28;20132;-79
2022/04/06 08:54:50;;;;;;;11.88;7.68;;;;;;;15.58;56.40;100368.31;5027774;28;20144;-80
2022/04/06 08:57:19;;;;;;;8.23;6.85;;;;;;;15.68;56.02;100350.22;5027683;28;20044;-79
2022/04/06 08:59:47;;;;;;;10.75;7.68;;;;;;;15.91;54.78;100360.09;4978565;28;20041;-79
2022/04/06 09:02:20;;;;;;;10.13;7.07;;;;;;;15.99;54.64;100361.09;5011229;28;20033;-79
2022/04/06 09:04:53;;;;;;;8.40;6.57;;;;;;;15.54;53.72;100325.75;5024245;28;20037;-80
2022/04/06 09:07:21;;;;;;;6.80;5.82;;;;;;;15.91;51.79;100352.28;5020412;28;20398;-80
2022/04/06 09:09:51;;;;;;;8.77;6.00;;;;;;;16.08;52.14;100347.31;5011832;28;20030;-80
2022/04/06 09:12:19;;;;;;;7.90;5.88;;;;;;;16.22;50.20;100344.00;4990184;28;20410;-79
2022/04/06 09:14:45;;;;;;;8.63;6.22;;;;;;;16.43;48.80;100343.38;5025999;28;20029;-80
2022/04/06 09:17:11;;;;;;;7.90;5.93;;;;;;;16.43;49.93;100333.81;5027556;28;20417;-80
2022/04/06 09:19:47;;;;;;;8.05;5.30;;;;;;;16.48;47.80;100324.31;5027715;28;20025;-80
2022/04/06 09:22:13;;;;;;;7.90;5.70;;;;;;;16.44;47.48;100338.19;5014649;28;20497;-78
2022/04/06 09:24:38;;;;;;;6.90;5.50;;;;;;;16.64;52.67;100329.69;5033802;28;20044;-79
2022/04/06 09:27:04;;;;;;;8.95;5.47;;;;;;;16.66;47.59;100323.63;5033814;28;20396;-80
2022/04/06 09:29:35;;;;;;;7.82;6.47;;;;;;;16.90;53.06;100305.59;5034263;28;20017;-79
2022/04/06 09:32:10;;;;;;;8.55;6.20;;;;;;;17.09;52.20;100311.88;5037015;28;20040;-85
2022/04/06 09:34:38;;;;;;;5.57;4.65;;;;;;;17.10;47.01;100287.53;5053535;28;20029;-82
2022/04/06 09:37:25;;;;;;;9.18;5.82;;;;;;;17.37;48.79;100312.06;5035395;28;20493;-83
2022/04/06 09:39:52;;;;;;;10.23;6.47;;;;;;;17.40;49.58;100301.66;5053923;28;20029;-83
2022/04/06 09:42:25;;;;;;;7.50;6.15;;;;;;;17.63;49.06;100310.47;5035689;28;20033;-83
2022/04/06 09:47:38;;;;;;;8.02;6.22;;;;;;;17.74;48.27;100297.47;5048012;28;20052;-83
2022/04/06 09:50:15;;;;;;;6.17;5.30;;;;;;;18.02;45.04;100301.97;5015961;28;20025;-84
2022/04/06 09:52:45;;;;;;;9.07;5.22;;;;;;;18.16;44.48;100295.06;5037648;28;20353;-82
2022/04/06 09:55:13;;;;;;;7.60;5.25;;;;;;;18.26;45.30;100278.53;5037750;28;20060;-83
2022/04/06 09:57:56;;;;;;;8.88;4.70;;;;;;;18.51;43.34;100296.88;5032346;28;20085;-82
2022/04/06 10:00:24;;;;;;;7.05;5.05;;;;;;;18.62;42.69;100296.00;5036641;28;20021;-81
2022/04/06 10:03:08;;;;;;;6.43;4.55;;;;;;;18.72;43.72;100290.78;5048434;28;20033;-80
2022/04/06 10:05:37;;;;;;;7.13;4.93;;;;;;;18.73;44.87;100281.22;5047116;28;20035;-79
2022/04/06 10:08:04;;;;;;;6.55;4.38;;;;;;;18.64;46.76;100271.63;5031807;28;20033;-81
2022/04/06 10:10:31;;;;;;;8.70;5.47;;;;;;;18.71;49.11;100280.34;5071238;28;20060;-78
2022/04/06 10:12:57;;;;;;;5.88;4.50;;;;;;;18.84;45.16;100284.72;5052804;28;20492;-79
2022/04/06 10:15:25;;;;;;;8.65;4.15;;;;;;;19.06;39.24;100269.03;5052893;28;20052;-80
2022/04/06 10:17:50;;;;;;;7.88;3.92;;;;;;;19.36;39.63;100269.84;5045225;28;20423;-81
2022/04/06 10:20:29;;;;;;;6.43;4.30;;;;;;;19.59;38.10;100274.13;5031526;28;20043;-80
2022/04/06 10:23:05;;;;;;;5.35;3.58;;;;;;;19.62;38.23;100258.44;5033074;28;20056;-79
2022/04/06 10:25:43;;;;;;;5.90;4.15;;;;;;;19.67;39.80;100268.00;5045100;28;20404;-82
2022/04/06 10:28:12;;;;;;;5.35;3.70;;;;;;;19.39;38.52;100230.59;5040107;28;20037;-80
2022/04/06 10:30:38;;;;;;;5.22;3.50;;;;;;;19.51;38.11;100256.69;5031083;28;20481;-82
2022/04/06 10:33:19;;;;;;;6.43;4.07;;;;;;;19.29;35.19;100245.44;5030824;28;20033;-81
2022/04/06 10:35:45;;;;;;;7.25;3.92;;;;;;;19.66;35.84;100249.66;5032014;28;20052;-83
2022/04/06 10:38:16;;;;;;;8.55;3.60;;;;;;;19.92;38.36;100251.34;5014392;28;20489;-79
2022/04/06 10:40:45;;;;;;;5.95;3.80;;;;;;;20.19;35.21;100259.03;5014066;28;20110;-81
2022/04/06 10:43:40;;;;;;;4.65;3.10;;;;;;;20.26;31.66;100251.13;5032153;28;20029;-80
2022/04/06 10:46:18;;;;;;;5.40;3.60;;;;;;;20.20;29.86;100231.94;5044697;28;20023;-80
2022/04/06 10:49:09;;;;;;;4.63;2.63;;;;;;;20.09;23.88;100243.38;5031478;28;20025;-77
2022/04/06 10:51:56;;;;;;;5.22;2.70;;;;;;;20.23;26.88;100236.31;5015264;28;20463;-79
2022/04/06 10:54:23;;;;;;;5.25;2.95;;;;;;;20.46;27.75;100230.91;5031768;28;20547;-78
2022/04/06 10:56:59;;;;;;;4.00;2.83;;;;;;;20.76;30.01;100233.31;5030129;28;20064;-78
2022/04/06 10:59:29;;;;;;;4.88;2.83;;;;;;;20.83;26.50;100209.63;5030414;28;20083;-84
2022/04/06 11:02:14;;;;;;;4.00;2.90;;;;;;;21.12;26.43;100218.09;5020255;28;20033;-77
2022/04/06 11:04:41;;;;;;;4.30;2.80;;;;;;;21.28;26.73;100218.78;5030573;28;20084;-78
2022/04/06 11:07:08;;;;;;;4.13;2.80;;;;;;;21.46;27.21;100215.09;5011544;28;20108;-77
2022/04/06 11:12:35;;;;;;;4.28;2.80;;;;;;;21.39;27.45;100222.16;4970623;28;20108;-78
2022/04/06 11:15:00;;;;;;;7.20;2.88;;;;;;;21.43;26.27;100221.25;4970223;28;20109;-80
2022/04/06 11:17:32;;;;;;;5.25;3.10;;;;;;;21.43;26.58;100218.63;4970510;28;20502;-83
2022/04/06 11:20:06;;;;;;;5.88;3.38;;;;;;;21.57;27.43;100215.88;4952791;28;20103;-76
2022/04/06 11:22:32;;;;;;;3.83;2.85;;;;;;;21.84;27.51;100208.50;4969302;28;20030;-79
2022/04/06 11:24:59;;;;;;;4.45;2.67;;;;;;;21.79;27.22;100200.69;4969626;28;20097;-76
2022/04/06 11:27:35;;;;;;;4.85;3.00;;;;;;;21.91;24.53;100198.78;4969273;28;20031;-78